Time;durP1;ratioP1;P1;durP2;ratioP2;P2;SDS_P1;SDS_P2;PMS_P1;PMS_P2;Temp;Humidity;BMP_temperature;BMP_pressure;BME280_temperature;BME280_humidity;BME280_pressure;Samples;Min_cycle;Max_cycle;Signal;HPM_P1;HPM_P2
2022/05/06 00:00:21;;;;;;;12.97;2.80;;;8.40;73.20;;;;;;5050779;28;20210;-63
2022/05/06 00:02:47;;;;;;;6.17;2.50;;;8.30;73.40;;;;;;5050892;28;20220;-61
2022/05/06 00:05:12;;;;;;;8.43;2.30;;;8.30;73.80;;;;;;5053690;28;20528;-63
2022/05/06 00:07:39;;;;;;;4.33;2.17;;;8.30;73.60;;;;;;5055143;28;20187;-62
2022/05/06 00:10:06;;;;;;;6.10;2.30;;;8.30;72.30;;;;;;5054450;28;20644;-62
2022/05/06 00:12:33;;;;;;;6.67;2.47;;;8.40;71.90;;;;;;5054764;28;20201;-63
2022/05/06 00:14:59;;;;;;;8.63;2.93;;;8.50;71.10;;;;;;5054161;28;20571;-63
2022/05/06 00:17:25;;;;;;;9.00;2.50;;;8.50;71.00;;;;;;5054440;28;20198;-63
2022/05/06 00:19:51;;;;;;;9.03;2.53;;;8.60;71.20;;;;;;5054259;28;20191;-62
2022/05/06 00:22:17;;;;;;;3.77;2.10;;;8.60;70.40;;;;;;5054209;28;20238;-63
2022/05/06 00:24:43;;;;;;;6.00;2.57;;;8.60;70.40;;;;;;5053161;28;20194;-62
2022/05/06 00:27:09;;;;;;;7.03;2.57;;;8.60;70.70;;;;;;5054314;28;20189;-61
2022/05/06 00:29:35;;;;;;;15.13;3.13;;;8.50;71.50;;;;;;5052610;28;20187;-63
2022/05/06 00:32:02;;;;;;;15.23;3.23;;;8.40;72.80;;;;;;5053787;28;20190;-65
2022/05/06 00:34:28;;;;;;;5.87;2.53;;;8.30;72.50;;;;;;5054468;28;20269;-62
2022/05/06 00:36:55;;;;;;;8.00;2.37;;;8.30;73.50;;;;;;5052525;28;20269;-63
2022/05/06 00:39:21;;;;;;;9.60;2.97;;;8.20;73.10;;;;;;5054004;28;20193;-62
2022/05/06 00:41:47;;;;;;;8.77;2.77;;;8.20;72.70;;;;;;5054010;28;20210;-61
2022/05/06 00:44:13;;;;;;;10.03;2.83;;;8.10;72.70;;;;;;5053918;28;20202;-62
2022/05/06 00:46:39;;;;;;;7.80;2.93;;;8.10;74.90;;;;;;5053630;28;20584;-62
2022/05/06 00:49:10;;;;;;;6.67;2.43;;;8.00;76.70;;;;;;5052684;28;20262;-62
2022/05/06 00:51:38;;;;;;;8.27;2.70;;;8.10;76.20;;;;;;5052848;28;20194;-61
2022/05/06 00:54:04;;;;;;;5.93;2.40;;;8.00;78.40;;;;;;5053649;28;20276;-62
2022/05/06 00:56:30;;;;;;;7.33;2.60;;;8.00;78.80;;;;;;5053806;28;20209;-62
2022/05/06 00:58:55;;;;;;;10.07;2.47;;;7.90;79.50;;;;;;5053953;28;20244;-62
2022/05/06 01:01:21;;;;;;;6.60;2.33;;;7.70;79.20;;;;;;5053423;28;20198;-62
2022/05/06 01:03:48;;;;;;;6.50;2.00;;;7.60;78.40;;;;;;5053817;28;20695;-62
2022/05/06 01:06:14;;;;;;;10.03;3.00;;;7.60;78.90;;;;;;5053518;28;20194;-63
2022/05/06 01:08:41;;;;;;;11.00;3.27;;;7.60;79.90;;;;;;5053556;28;20268;-62
2022/05/06 01:11:07;;;;;;;7.93;3.07;;;7.70;81.00;;;;;;5053463;28;20182;-62
2022/05/06 01:13:47;;;;;;;9.57;3.47;;;7.70;82.80;;;;;;5053730;28;20206;-63
2022/05/06 01:16:13;;;;;;;8.03;3.03;;;7.70;83.30;;;;;;5052072;28;20177;-61
2022/05/06 01:18:40;;;;;;;11.63;3.47;;;7.60;83.80;;;;;;5053242;28;20604;-62
2022/05/06 01:21:06;;;;;;;11.70;3.20;;;7.40;84.30;;;;;;5052842;28;20356;-61
2022/05/06 01:23:33;;;;;;;12.33;5.20;;;7.40;85.10;;;;;;5052943;28;20234;-62
2022/05/06 01:25:59;;;;;;;15.63;4.97;;;7.50;89.70;;;;;;5053417;28;20185;-61
2022/05/06 01:28:26;;;;;;;15.33;5.10;;;7.60;91.70;;;;;;5053272;28;20632;-62
2022/05/06 01:31:00;;;;;;;25.53;5.97;;;7.60;93.00;;;;;;5053099;28;20187;-61
2022/05/06 01:33:29;;;;;;;15.83;5.73;;;7.50;94.60;;;;;;5053255;28;20202;-61
2022/05/06 01:36:18;;;;;;;14.23;5.57;;;7.50;96.30;;;;;;5052965;28;20182;-62
2022/05/06 01:38:49;;;;;;;9.53;5.30;;;7.40;97.80;;;;;;5053078;28;20204;-62
2022/05/06 01:41:27;;;;;;;20.73;5.53;;;7.30;99.40;;;;;;5052524;28;20693;-62
2022/05/06 01:44:02;;;;;;;18.03;6.80;;;7.20;99.90;;;;;;5053250;28;20174;-63
2022/05/06 01:46:29;;;;;;;14.53;6.20;;;7.10;99.90;;;;;;5052995;28;20176;-61
2022/05/06 01:48:56;;;;;;;14.87;6.27;;;7.10;99.90;;;;;;5052990;28;20189;-63
2022/05/06 01:51:23;;;;;;;18.97;6.80;;;7.00;99.90;;;;;;5052515;28;20280;-63
2022/05/06 01:53:49;;;;;;;13.93;5.77;;;7.00;99.90;;;;;;5051442;28;20211;-62
2022/05/06 01:56:19;;;;;;;16.77;6.30;;;7.00;99.90;;;;;;5052543;28;20189;-62
2022/05/06 01:58:45;;;;;;;14.07;6.23;;;6.90;99.90;;;;;;5052734;28;20267;-62
2022/05/06 02:01:11;;;;;;;14.70;7.33;;;7.00;99.90;;;;;;5052168;28;20218;-62
2022/05/06 02:06:21;;;;;;;22.53;6.93;;;6.80;99.90;;;;;;5052318;28;20181;-63
2022/05/06 02:08:47;;;;;;;13.63;6.50;;;6.90;99.90;;;;;;5052521;28;20178;-61
2022/05/06 02:11:13;;;;;;;11.80;6.03;;;6.90;99.90;;;;;;5052023;28;20184;-62
2022/05/06 02:13:39;;;;;;;16.53;7.00;;;6.90;99.90;;;;;;5052153;28;20188;-62
2022/05/06 02:16:05;;;;;;;12.73;6.13;;;6.80;99.90;;;;;;5052335;28;20239;-62
2022/05/06 02:18:31;;;;;;;22.87;7.33;;;6.80;99.90;;;;;;5052004;28;20186;-63
2022/05/06 02:20:58;;;;;;;21.37;7.87;;;6.80;99.90;;;;;;5052202;28;20222;-62
2022/05/06 02:23:25;;;;;;;21.63;8.37;;;6.80;99.90;;;;;;5050168;28;20252;-62
2022/05/06 02:25:50;;;;;;;18.77;7.97;;;7.00;99.90;;;;;;5052051;28;20181;-62
2022/05/06 02:28:17;;;;;;;23.47;8.20;;;7.00;99.90;;;;;;5051642;28;20628;-62
2022/05/06 02:33:28;;;;;;;20.30;8.13;;;6.90;99.90;;;;;;5051737;28;20215;-62
2022/05/06 02:35:54;;;;;;;15.43;7.17;;;6.90;99.90;;;;;;5052389;28;20276;-62
2022/05/06 02:38:22;;;;;;;15.07;7.03;;;6.90;99.90;;;;;;5051808;28;20623;-62
2022/05/06 02:40:48;;;;;;;23.07;7.10;;;6.90;99.90;;;;;;5051755;28;20211;-63
2022/05/06 02:43:14;;;;;;;21.90;7.33;;;6.90;99.90;;;;;;5051357;28;20187;-62
2022/05/06 02:45:39;;;;;;;23.73;6.60;;;6.90;99.90;;;;;;5051918;28;20605;-63
2022/05/06 02:48:06;;;;;;;30.70;7.90;;;6.90;99.90;;;;;;5051249;28;20188;-63
2022/05/06 02:50:31;;;;;;;18.07;6.57;;;7.00;99.90;;;;;;5050339;28;20284;-61
2022/05/06 02:52:57;;;;;;;24.60;7.70;;;7.00;99.90;;;;;;5051465;28;20279;-64
2022/05/06 02:55:23;;;;;;;23.43;8.10;;;7.00;99.90;;;;;;5050262;28;20185;-62
2022/05/06 02:57:53;;;;;;;32.50;9.27;;;6.90;99.90;;;;;;5050508;28;20202;-62
2022/05/06 03:00:19;;;;;;;21.87;7.93;;;6.90;99.90;;;;;;5051312;28;20261;-62
2022/05/06 03:02:44;;;;;;;20.73;6.63;;;6.80;99.90;;;;;;5051537;28;20179;-62
2022/05/06 03:05:11;;;;;;;23.93;6.90;;;6.70;99.90;;;;;;5051304;28;20516;-62
2022/05/06 03:07:37;;;;;;;21.87;7.17;;;6.60;99.90;;;;;;5051305;28;20598;-62
2022/05/06 03:10:03;;;;;;;15.07;6.77;;;6.60;99.90;;;;;;5051185;28;20721;-62
2022/05/06 03:12:30;;;;;;;23.80;7.30;;;6.50;99.90;;;;;;5051029;28;20294;-62
2022/05/06 03:14:58;;;;;;;20.80;7.40;;;6.50;99.90;;;;;;5051355;28;20194;-62
2022/05/06 03:17:24;;;;;;;24.47;7.70;;;6.50;99.90;;;;;;5051159;28;20193;-62
2022/05/06 03:19:50;;;;;;;25.00;7.53;;;6.60;99.90;;;;;;5051408;28;20186;-62
2022/05/06 03:22:17;;;;;;;20.97;7.83;;;6.60;99.90;;;;;;5050466;28;20691;-62
2022/05/06 03:24:43;;;;;;;17.37;7.50;;;6.60;99.90;;;;;;5051335;28;20174;-62
2022/05/06 03:27:59;;;;;;;22.00;7.93;;;6.70;99.90;;;;;;5050803;28;20264;-63
2022/05/06 03:29:55;;;;;;;29.70;9.00;;;6.70;99.90;;;;;;5050404;28;20190;-62
2022/05/06 03:32:22;;;;;;;15.10;7.10;;;6.80;99.90;;;;;;5050774;28;20237;-62
2022/05/06 03:34:49;;;;;;;24.10;9.23;;;6.80;99.90;;;;;;5050786;28;20268;-62
2022/05/06 03:37:15;;;;;;;22.27;8.67;;;6.90;99.90;;;;;;5050844;28;20267;-61
2022/05/06 03:39:41;;;;;;;26.83;8.47;;;7.00;99.90;;;;;;5053273;28;20213;-62
2022/05/06 03:42:07;;;;;;;36.47;10.90;;;7.00;99.90;;;;;;5055042;28;20539;-62
2022/05/06 03:44:33;;;;;;;27.10;9.93;;;7.10;99.90;;;;;;5055125;28;20182;-62
2022/05/06 03:46:58;;;;;;;26.23;10.67;;;7.10;99.90;;;;;;5054991;28;20182;-62
2022/05/06 03:49:24;;;;;;;25.87;8.67;;;7.20;99.90;;;;;;5054353;28;20182;-62
2022/05/06 03:51:50;;;;;;;19.50;8.47;;;7.30;99.90;;;;;;5054685;28;20194;-62
2022/05/06 03:54:16;;;;;;;28.07;10.30;;;7.40;99.90;;;;;;5054638;28;20673;-62
2022/05/06 03:56:42;;;;;;;28.07;10.10;;;7.40;99.90;;;;;;5054526;28;20619;-62
2022/05/06 03:59:09;;;;;;;48.63;14.40;;;7.50;99.90;;;;;;5054286;28;20261;-66
2022/05/06 04:01:36;;;;;;;28.23;10.07;;;7.60;99.90;;;;;;5053994;28;20202;-63
2022/05/06 04:04:02;;;;;;;28.37;10.40;;;7.60;99.90;;;;;;5054481;28;20191;-55
2022/05/06 04:06:28;;;;;;;22.23;10.80;;;7.70;99.90;;;;;;5054654;28;20182;-55
2022/05/06 04:08:54;;;;;;;32.13;10.73;;;7.80;99.90;;;;;;5054575;28;20593;-61
2022/05/06 04:11:20;;;;;;;23.47;9.40;;;7.80;99.90;;;;;;5052370;28;20188;-63
2022/05/06 04:13:46;;;;;;;35.33;10.40;;;8.00;99.90;;;;;;5052197;28;20212;-61
2022/05/06 04:16:12;;;;;;;18.97;9.20;;;8.20;99.90;;;;;;5052892;28;20170;-61
2022/05/06 04:18:38;;;;;;;36.77;11.43;;;8.20;99.90;;;;;;5053972;28;20550;-61
2022/05/06 04:23:48;;;;;;;25.87;8.40;;;8.40;99.90;;;;;;5054062;28;20270;-61
2022/05/06 04:26:14;;;;;;;22.70;8.60;;;8.50;99.90;;;;;;5053420;28;20268;-61
2022/05/06 04:28:41;;;;;;;17.50;7.53;;;8.70;99.90;;;;;;5050116;28;20666;-61
2022/05/06 04:31:08;;;;;;;19.90;6.77;;;8.90;99.90;;;;;;5051854;28;20239;-62
2022/05/06 04:33:37;;;;;;;29.17;8.00;;;8.90;99.90;;;;;;5051113;28;20634;-64
2022/05/06 04:36:04;;;;;;;18.50;7.33;;;9.00;99.90;;;;;;5050461;28;20310;-61
2022/05/06 04:38:30;;;;;;;36.57;10.30;;;9.20;99.90;;;;;;5051078;28;20195;-61
2022/05/06 04:40:58;;;;;;;19.33;6.73;;;9.30;99.90;;;;;;5052667;28;20212;-61
2022/05/06 04:43:25;;;;;;;29.60;8.00;;;9.40;99.90;;;;;;5053142;28;20174;-62
2022/05/06 04:45:51;;;;;;;25.37;7.00;;;9.50;99.90;;;;;;5053343;28;20191;-61
2022/05/06 04:48:18;;;;;;;33.97;8.70;;;9.50;99.90;;;;;;5053090;28;20192;-62
2022/05/06 04:50:45;;;;;;;20.53;7.03;;;9.60;99.90;;;;;;5052564;28;20192;-62
2022/05/06 04:53:11;;;;;;;21.27;6.70;;;9.70;99.90;;;;;;5052827;28;20184;-67
2022/05/06 04:55:42;;;;;;;35.20;8.07;;;9.80;99.90;;;;;;5052888;28;20209;-64
2022/05/06 04:58:08;;;;;;;26.37;8.13;;;9.80;99.90;;;;;;5052560;28;20592;-62
2022/05/06 05:00:34;;;;;;;19.20;6.57;;;9.80;99.90;;;;;;5052675;28;20311;-62
2022/05/06 05:03:01;;;;;;;24.33;7.23;;;9.70;99.90;;;;;;5052810;28;20245;-62
2022/05/06 05:05:27;;;;;;;26.33;7.67;;;9.60;99.90;;;;;;5053198;28;20184;-61
2022/05/06 05:07:54;;;;;;;16.47;7.33;;;9.60;99.90;;;;;;5052862;28;20187;-61
2022/05/06 05:10:20;;;;;;;20.37;6.33;;;9.60;99.90;;;;;;5052556;28;20191;-61
2022/05/06 05:12:47;;;;;;;21.50;5.90;;;9.70;99.90;;;;;;5052877;28;20263;-61
2022/05/06 05:15:15;;;;;;;32.47;7.63;;;9.80;99.90;;;;;;5052724;28;20198;-63
2022/05/06 05:17:41;;;;;;;16.73;7.17;;;10.00;99.90;;;;;;5052698;28;20585;-61
2022/05/06 05:20:08;;;;;;;27.87;8.37;;;10.20;99.90;;;;;;5052907;28;20273;-62
2022/05/06 05:22:36;;;;;;;18.60;6.70;;;10.30;99.90;;;;;;5018118;28;20290;-61
2022/05/06 05:25:03;;;;;;;20.83;6.80;;;10.50;99.90;;;;;;5052134;28;20195;-60
2022/05/06 05:27:30;;;;;;;33.63;8.73;;;10.60;99.90;;;;;;5052491;28;20654;-62
2022/05/06 05:29:56;;;;;;;23.20;6.67;;;10.80;99.90;;;;;;5050752;28;20186;-64
2022/05/06 05:32:22;;;;;;;16.13;6.80;;;10.90;99.90;;;;;;5052564;28;20636;-63
2022/05/06 05:34:48;;;;;;;33.70;9.10;;;11.00;99.90;;;;;;5051135;28;20184;-63
2022/05/06 05:37:14;;;;;;;26.97;8.30;;;11.00;99.90;;;;;;5051980;28;20698;-65
2022/05/06 05:39:40;;;;;;;19.60;6.83;;;11.10;99.90;;;;;;5052410;28;20222;-64
2022/05/06 05:42:06;;;;;;;20.70;6.97;;;11.30;99.90;;;;;;5052488;28;20206;-62
2022/05/06 05:50:03;;;;;;;20.23;6.50;;;11.70;99.90;;;;;;5052120;28;20193;-62
2022/05/06 05:52:28;;;;;;;25.47;6.80;;;11.90;99.90;;;;;;5051853;28;20181;-64
2022/05/06 05:54:54;;;;;;;20.73;6.73;;;12.10;99.40;;;;;;5052127;28;20513;-63
2022/05/06 05:57:20;;;;;;;20.93;6.13;;;12.10;99.40;;;;;;5047341;28;20255;-65
2022/05/06 05:59:47;;;;;;;16.93;6.20;;;12.20;99.00;;;;;;5042189;28;20206;-65
2022/05/06 06:02:13;;;;;;;23.63;6.53;;;12.30;98.90;;;;;;5040173;28;20231;-64
2022/05/06 06:04:41;;;;;;;19.67;6.33;;;12.50;98.30;;;;;;5049592;28;20288;-63
2022/05/06 06:07:07;;;;;;;27.90;6.87;;;12.70;97.60;;;;;;5049290;28;20217;-65
2022/05/06 06:09:33;;;;;;;18.27;6.50;;;12.90;97.00;;;;;;5047808;28;20478;-64
2022/05/06 06:11:59;;;;;;;14.80;5.87;;;13.00;95.90;;;;;;5040001;28;20649;-64
2022/05/06 06:14:24;;;;;;;17.13;6.23;;;13.20;95.40;;;;;;5046571;28;20651;-64
2022/05/06 06:16:50;;;;;;;25.17;6.67;;;13.40;94.90;;;;;;5048354;28;20212;-63
2022/05/06 06:19:16;;;;;;;21.03;5.87;;;13.60;94.40;;;;;;5046776;28;20191;-66
2022/05/06 06:21:43;;;;;;;16.07;5.90;;;13.70;93.80;;;;;;5041727;28;20238;-65
2022/05/06 06:24:09;;;;;;;18.10;5.63;;;13.80;92.80;;;;;;5051188;28;20666;-61
2022/05/06 06:26:35;;;;;;;14.50;5.00;;;13.90;91.70;;;;;;5050755;28;20549;-63
2022/05/06 06:29:02;;;;;;;31.23;5.27;;;14.10;90.60;;;;;;5049981;28;20192;-64
2022/05/06 06:31:31;;;;;;;10.43;4.27;;;14.30;89.20;;;;;;5051135;28;20203;-63
2022/05/06 06:33:57;;;;;;;24.20;3.93;;;14.40;87.30;;;;;;5051491;28;20187;-64
2022/05/06 06:36:24;;;;;;;12.27;4.03;;;14.40;86.30;;;;;;5050322;28;20687;-65
2022/05/06 06:38:50;;;;;;;14.37;3.60;;;14.40;85.50;;;;;;5050478;28;20187;-63
2022/05/06 06:41:16;;;;;;;11.17;3.23;;;14.60;84.20;;;;;;5050917;28;20275;-64
2022/05/06 06:43:42;;;;;;;19.17;3.30;;;14.80;78.00;;;;;;5035315;28;20231;-62
2022/05/06 06:46:08;;;;;;;10.83;3.40;;;14.90;75.40;;;;;;5050511;28;20551;-63
2022/05/06 06:48:34;;;;;;;19.13;3.20;;;15.00;75.10;;;;;;5050089;28;20247;-62
2022/05/06 06:51:00;;;;;;;9.40;2.43;;;15.10;72.90;;;;;;5050758;28;20684;-62
2022/05/06 06:53:26;;;;;;;13.00;2.70;;;15.20;70.90;;;;;;5046954;28;20195;-65
2022/05/06 06:55:52;;;;;;;18.00;7.80;;;15.20;71.20;;;;;;5040093;28;20186;-62
2022/05/06 06:58:18;;;;;;;15.73;4.37;;;15.30;70.50;;;;;;5057328;28;20204;-63
2022/05/06 07:00:44;;;;;;;12.33;3.17;;;15.30;70.00;;;;;;5038155;28;20216;-64
2022/05/06 07:03:11;;;;;;;15.73;3.37;;;15.40;69.70;;;;;;5051414;28;20219;-64
2022/05/06 07:05:37;;;;;;;9.37;3.83;;;15.50;70.20;;;;;;5049953;28;20185;-64
2022/05/06 07:13:32;;;;;;;10.30;3.23;;;15.70;68.70;;;;;;5052742;28;20665;-62
2022/05/06 07:15:58;;;;;;;13.93;3.40;;;15.80;68.20;;;;;;5036887;28;20192;-64
2022/05/06 07:18:24;;;;;;;7.93;3.50;;;15.90;68.50;;;;;;5054255;28;20276;-63
2022/05/06 07:20:49;;;;;;;16.40;4.30;;;16.10;67.60;;;;;;5052904;28;20372;-63
2022/05/06 07:23:15;;;;;;;9.67;3.17;;;16.20;68.20;;;;;;5054864;28;20229;-61
2022/05/06 07:25:41;;;;;;;10.70;3.37;;;16.30;66.70;;;;;;5052982;28;20188;-63
2022/05/06 07:28:08;;;;;;;7.67;3.30;;;16.40;66.10;;;;;;5054382;28;20620;-62
2022/05/06 07:30:34;;;;;;;15.97;3.40;;;16.50;66.20;;;;;;5052844;28;20194;-65
2022/05/06 07:33:00;;;;;;;17.30;4.67;;;16.70;65.40;;;;;;5053911;28;20178;-63
2022/05/06 07:35:25;;;;;;;16.10;3.77;;;16.80;65.10;;;;;;5054083;28;20292;-62
2022/05/06 07:37:51;;;;;;;10.30;3.27;;;17.00;63.20;;;;;;5054377;28;20551;-63
2022/05/06 07:40:17;;;;;;;13.93;3.67;;;17.10;62.30;;;;;;5054379;28;20185;-65
2022/05/06 07:42:45;;;;;;;7.37;2.63;;;17.20;61.40;;;;;;5054414;28;20544;-63
2022/05/06 07:45:13;;;;;;;7.73;2.77;;;17.10;60.50;;;;;;5054129;28;20190;-65
2022/05/06 07:47:39;;;;;;;11.13;3.90;;;17.10;59.30;;;;;;5052287;28;20631;-63
2022/05/06 07:50:06;;;;;;;10.90;3.97;;;17.20;61.10;;;;;;5054082;28;20186;-63
2022/05/06 07:52:31;;;;;;;12.37;2.80;;;17.40;61.30;;;;;;5054226;28;20174;-63
2022/05/06 07:54:57;;;;;;;9.63;2.87;;;17.40;59.40;;;;;;5052414;28;20183;-62
2022/05/06 07:57:23;;;;;;;15.53;4.07;;;17.40;59.50;;;;;;5053671;28;20178;-63
2022/05/06 07:59:48;;;;;;;15.93;3.30;;;17.40;59.40;;;;;;5054096;28;20182;-64
2022/05/06 08:04:59;;;;;;;14.50;3.53;;;17.30;58.10;;;;;;5039628;28;20232;-64
2022/05/06 08:07:25;;;;;;;10.73;3.40;;;17.60;58.40;;;;;;5052445;28;20186;-63
2022/05/06 08:09:50;;;;;;;11.90;3.07;;;17.60;57.90;;;;;;5054490;28;20193;-64
2022/05/06 08:12:16;;;;;;;10.60;2.67;;;17.70;57.70;;;;;;5054059;28;20678;-63
2022/05/06 08:14:43;;;;;;;17.30;3.83;;;17.80;57.00;;;;;;5054219;28;20186;-64
2022/05/06 08:17:09;;;;;;;19.07;3.10;;;17.80;56.30;;;;;;5052309;28;20193;-63
2022/05/06 08:19:35;;;;;;;13.40;2.93;;;18.00;56.50;;;;;;5053655;28;20602;-66
2022/05/06 08:22:01;;;;;;;12.23;2.90;;;18.00;56.30;;;;;;5053722;28;20324;-64
2022/05/06 08:24:27;;;;;;;9.70;3.37;;;17.80;56.90;;;;;;5053084;28;20184;-64
2022/05/06 08:26:53;;;;;;;9.23;2.87;;;17.80;56.60;;;;;;5053546;28;20190;-65
2022/05/06 08:29:19;;;;;;;10.77;2.83;;;17.70;57.30;;;;;;5053907;28;20187;-62
2022/05/06 08:31:45;;;;;;;13.40;2.70;;;17.80;57.00;;;;;;5051360;28;20313;-62
2022/05/06 08:34:12;;;;;;;41.47;4.77;;;17.90;56.60;;;;;;5053617;28;20187;-62
2022/05/06 08:36:43;;;;;;;16.13;4.33;;;17.90;56.60;;;;;;5052833;28;20179;-61
2022/05/06 08:39:11;;;;;;;12.27;2.67;;;18.00;56.60;;;;;;5053495;28;20619;-61
2022/05/06 08:41:37;;;;;;;13.77;3.10;;;18.00;56.50;;;;;;5052207;28;20671;-60
2022/05/06 08:52:39;;;;;;;9.80;3.30;;;18.20;57.20;;;;;;5052990;28;20243;-60
2022/05/06 08:55:05;;;;;;;11.83;3.60;;;18.20;56.70;;;;;;5052620;28;20166;-61
2022/05/06 08:57:32;;;;;;;12.17;3.30;;;18.10;57.50;;;;;;5051095;28;20534;-61
2022/05/06 08:59:58;;;;;;;17.60;3.53;;;18.30;57.80;;;;;;5052660;28;20197;-60
2022/05/06 09:02:24;;;;;;;8.97;3.80;;;18.50;56.60;;;;;;5052513;28;20218;-60
2022/05/06 09:04:50;;;;;;;15.47;3.73;;;18.60;56.80;;;;;;5052664;28;20232;-58
2022/05/06 09:07:21;;;;;;;12.07;4.17;;;18.90;57.10;;;;;;5051322;28;20267;-62
2022/05/06 09:10:15;;;;;;;10.00;2.97;;;19.10;57.20;;;;;;5052155;28;20173;-59
2022/05/06 09:12:46;;;;;;;8.77;3.00;;;19.10;55.20;;;;;;5052315;28;20174;-60
2022/05/06 09:18:07;;;;;;;19.27;5.20;;;18.90;56.20;;;;;;5041450;28;20190;-61
2022/05/06 09:20:33;;;;;;;14.77;3.57;;;19.00;55.90;;;;;;5050767;28;20206;-59
2022/05/06 09:23:00;;;;;;;12.43;3.63;;;19.10;55.50;;;;;;5052189;28;20234;-56
2022/05/06 09:25:42;;;;;;;9.80;3.93;;;19.20;53.70;;;;;;5051605;28;20654;-59
2022/05/06 09:28:22;;;;;;;28.17;4.83;;;19.40;52.40;;;;;;5051120;28;20297;-60
2022/05/06 09:31:04;;;;;;;7.20;3.20;;;19.50;52.90;;;;;;5032123;28;20175;-61
2022/05/06 09:33:32;;;;;;;25.20;4.90;;;19.30;53.40;;;;;;5032642;28;20216;-60
2022/05/06 09:35:58;;;;;;;13.47;3.57;;;19.30;53.70;;;;;;5031429;28;20179;-53
2022/05/06 09:38:25;;;;;;;11.47;3.10;;;19.30;53.50;;;;;;5031425;28;20603;-54
2022/05/06 09:40:52;;;;;;;30.33;3.78;;;19.30;53.50;;;;;;5031804;28;20198;-58
2022/05/06 09:43:19;;;;;;;9.13;3.20;;;19.40;53.70;;;;;;5030609;28;20278;-55
2022/05/06 09:45:46;;;;;;;11.73;4.07;;;19.50;52.00;;;;;;5031801;28;20175;-53
2022/05/06 09:48:13;;;;;;;13.50;3.28;;;19.50;53.00;;;;;;5036646;28;20273;-53
2022/05/06 09:50:45;;;;;;;9.30;3.42;;;19.60;53.40;;;;;;5051726;28;20190;-54
2022/05/06 09:53:15;;;;;;;11.55;2.95;;;19.80;53.60;;;;;;5051526;28;20624;-58
2022/05/06 09:55:46;;;;;;;12.77;4.00;;;19.60;53.20;;;;;;5050787;28;20198;-56
2022/05/06 10:02:11;;;;;;;14.05;3.30;;;19.90;53.30;;;;;;5051691;28;20216;-57
2022/05/06 10:04:38;;;;;;;9.68;2.90;;;19.80;53.10;;;;;;5051566;28;20224;-54
2022/05/06 10:07:11;;;;;;;8.10;3.55;;;20.00;53.70;;;;;;5051279;28;20198;-59
2022/05/06 10:09:46;;;;;;;23.30;6.07;;;20.00;53.40;;;;;;5051011;28;20254;-53
2022/05/06 10:12:16;;;;;;;6.50;2.92;;;20.20;54.50;;;;;;5049717;28;20639;-59
2022/05/06 10:14:44;;;;;;;13.82;3.50;;;20.40;52.00;;;;;;5047187;28;20209;-54
2022/05/06 10:17:10;;;;;;;11.50;3.47;;;20.50;52.70;;;;;;5038981;28;20204;-55
2022/05/06 10:19:38;;;;;;;8.77;3.75;;;20.60;52.70;;;;;;5045589;28;20199;-52
2022/05/06 10:22:04;;;;;;;13.55;4.03;;;20.50;51.00;;;;;;5047777;28;20711;-58
2022/05/06 10:24:41;;;;;;;11.45;4.10;;;20.40;51.50;;;;;;5043081;28;20202;-51
2022/05/06 10:33:15;;;;;;;8.70;2.92;;;20.80;51.10;;;;;;5039034;28;20279;-60
2022/05/06 10:35:46;;;;;;;8.85;3.00;;;21.00;50.00;;;;;;5048408;28;20186;-54
2022/05/06 10:38:46;;;;;;;10.20;3.63;;;20.90;49.40;;;;;;5050546;28;20190;-55
2022/05/06 10:41:22;;;;;;;16.77;3.25;;;20.90;49.60;;;;;;5050986;28;20202;-55
2022/05/06 10:43:49;;;;;;;16.35;3.10;;;21.00;48.80;;;;;;5051262;28;20255;-56
2022/05/06 10:46:31;;;;;;;17.25;3.60;;;20.90;48.80;;;;;;5050680;28;20175;-59
2022/05/06 10:49:32;;;;;;;27.60;10.93;;;21.00;48.80;;;;;;5050430;28;20710;-61
2022/05/06 10:52:25;;;;;;;18.25;3.60;;;21.20;49.20;;;;;;5049761;28;20193;-57
2022/05/06 10:54:55;;;;;;;8.35;3.08;;;21.50;49.00;;;;;;5042069;28;20717;-56
2022/05/06 10:57:24;;;;;;;12.23;3.78;;;21.20;47.90;;;;;;5049090;28;20277;-57
2022/05/06 11:00:09;;;;;;;7.03;3.35;;;21.20;48.60;;;;;;5050297;28;20182;-56
2022/05/06 11:02:37;;;;;;;18.58;3.47;;;21.40;48.80;;;;;;5050461;28;20228;-57
2022/05/06 11:05:04;;;;;;;20.33;5.50;;;21.70;48.00;;;;;;5050706;28;20179;-59
2022/05/06 11:07:32;;;;;;;12.63;3.30;;;21.70;47.20;;;;;;5050520;28;20578;-57
2022/05/06 11:09:58;;;;;;;12.20;3.13;;;22.00;47.80;;;;;;5050673;28;20383;-55
2022/05/06 11:12:37;;;;;;;15.45;4.45;;;21.90;47.30;;;;;;5049267;28;20623;-58
2022/05/06 11:15:05;;;;;;;18.60;4.82;;;22.30;47.20;;;;;;5050508;28;20574;-56
2022/05/06 11:17:32;;;;;;;10.27;3.10;;;22.50;46.50;;;;;;5049706;28;20182;-62
2022/05/06 11:20:13;;;;;;;12.38;3.55;;;22.70;45.80;;;;;;5048222;28;20262;-59
2022/05/06 11:23:08;;;;;;;16.98;3.72;;;22.70;45.70;;;;;;5048166;28;20684;-56
2022/05/06 11:25:35;;;;;;;17.23;3.95;;;23.50;45.90;;;;;;5046375;28;20191;-56
2022/05/06 11:28:24;;;;;;;14.82;3.10;;;25.10;43.50;;;;;;5049565;28;20175;-59
2022/05/06 11:30:52;;;;;;;13.75;3.60;;;26.80;41.00;;;;;;5029762;28;20576;-58
2022/05/06 11:33:25;;;;;;;14.85;3.17;;;28.00;39.80;;;;;;5030279;28;20523;-56
2022/05/06 11:36:01;;;;;;;18.42;3.78;;;29.00;38.30;;;;;;5029697;28;20712;-59
2022/05/06 11:38:34;;;;;;;12.40;3.72;;;28.80;37.50;;;;;;5030833;28;20175;-60
2022/05/06 11:41:13;;;;;;;11.98;3.10;;;29.30;37.30;;;;;;5031090;28;20297;-55
2022/05/06 11:43:40;;;;;;;14.60;3.95;;;29.80;36.00;;;;;;5030710;28;20616;-56
2022/05/06 11:48:51;;;;;;;15.98;4.28;;;31.10;34.60;;;;;;5029506;28;20178;-58
2022/05/06 11:51:19;;;;;;;8.45;3.55;;;30.10;33.50;;;;;;5030321;28;20547;-56
2022/05/06 11:53:46;;;;;;;12.70;3.38;;;30.30;33.50;;;;;;5030599;28;20281;-56
2022/05/06 11:56:12;;;;;;;16.63;4.05;;;30.80;33.80;;;;;;5030930;28;20214;-56
2022/05/06 11:58:39;;;;;;;15.93;3.95;;;31.80;32.70;;;;;;5045659;28;20209;-58
2022/05/06 12:01:05;;;;;;;12.00;3.33;;;31.80;31.60;;;;;;5053351;28;20648;-58
2022/05/06 12:03:31;;;;;;;14.68;4.90;;;31.80;31.20;;;;;;5052623;28;20189;-61
2022/05/06 12:06:02;;;;;;;34.40;7.15;;;32.30;31.60;;;;;;5053714;28;20542;-57
2022/05/06 12:08:33;;;;;;;14.90;4.80;;;32.70;30.70;;;;;;5053670;28;20248;-58
2022/05/06 12:11:07;;;;;;;10.30;3.75;;;33.20;31.80;;;;;;5053980;28;20632;-59
2022/05/06 12:13:40;;;;;;;10.77;3.58;;;33.50;29.70;;;;;;5053931;28;20178;-61
2022/05/06 12:16:14;;;;;;;9.32;3.40;;;33.10;29.50;;;;;;5036287;28;20182;-56
2022/05/06 12:18:54;;;;;;;6.88;3.60;;;32.00;29.70;;;;;;5053554;28;20188;-57
2022/05/06 12:21:22;;;;;;;9.48;3.60;;;31.90;30.10;;;;;;5053429;28;20544;-55
2022/05/06 12:23:59;;;;;;;13.15;3.75;;;32.80;30.70;;;;;;5053720;28;20304;-58
2022/05/06 12:26:30;;;;;;;13.38;3.42;;;33.60;29.40;;;;;;5054022;28;20242;-57
2022/05/06 12:28:56;;;;;;;16.05;3.28;;;34.20;29.20;;;;;;5053531;28;20178;-58
2022/05/06 12:31:29;;;;;;;10.43;3.72;;;34.10;29.50;;;;;;5053541;28;20185;-55
2022/05/06 12:34:09;;;;;;;7.88;3.42;;;34.60;28.80;;;;;;5053358;28;20594;-55
2022/05/06 12:36:36;;;;;;;10.50;3.95;;;34.90;28.60;;;;;;5051775;28;20212;-58
2022/05/06 12:39:16;;;;;;;22.90;5.43;;;35.00;28.10;;;;;;5053152;28;20584;-58
2022/05/06 12:41:43;;;;;;;7.18;3.17;;;34.60;28.70;;;;;;5053309;28;20210;-56
2022/05/06 12:44:22;;;;;;;15.05;3.20;;;35.10;28.00;;;;;;5053249;28;20208;-56
2022/05/06 12:46:48;;;;;;;7.35;3.45;;;35.30;27.50;;;;;;5053257;28;20197;-57
2022/05/06 12:51:59;;;;;;;9.27;4.18;;;35.20;27.70;;;;;;5053338;28;20181;-59
2022/05/06 12:54:28;;;;;;;9.63;2.80;;;34.80;27.60;;;;;;5051703;28;20274;-59
2022/05/06 12:56:55;;;;;;;19.08;6.45;;;35.40;27.70;;;;;;5053206;28;20637;-57
2022/05/06 12:59:21;;;;;;;9.07;4.00;;;35.70;27.90;;;;;;5052794;28;20261;-58
2022/05/06 13:01:47;;;;;;;20.95;3.60;;;35.10;27.70;;;;;;5052869;28;20198;-58
2022/05/06 13:04:13;;;;;;;11.70;3.30;;;34.40;27.80;;;;;;5052803;28;20176;-53
2022/05/06 13:06:39;;;;;;;14.07;3.58;;;33.20;28.20;;;;;;5053072;28;20622;-57
2022/05/06 13:09:04;;;;;;;17.67;4.72;;;32.50;28.80;;;;;;5052648;28;20193;-54
2022/05/06 13:11:31;;;;;;;18.92;4.57;;;32.30;29.20;;;;;;5051688;28;20651;-60
2022/05/06 13:13:58;;;;;;;7.60;2.80;;;32.90;29.10;;;;;;5052632;28;20178;-56
2022/05/06 13:16:24;;;;;;;11.25;3.70;;;32.40;28.80;;;;;;5052723;28;20186;-57
2022/05/06 13:18:52;;;;;;;26.60;4.15;;;32.90;28.90;;;;;;5052255;28;20201;-54
2022/05/06 13:21:18;;;;;;;8.73;3.85;;;33.40;28.80;;;;;;5053050;28;20211;-57
2022/05/06 13:23:44;;;;;;;8.18;3.00;;;33.00;28.50;;;;;;5051188;28;20242;-57
2022/05/06 13:26:10;;;;;;;9.45;3.53;;;33.10;28.80;;;;;;5051072;28;20240;-56
2022/05/06 13:28:36;;;;;;;12.38;4.13;;;34.80;28.20;;;;;;5052242;28;20269;-61
2022/05/06 13:31:01;;;;;;;13.50;3.83;;;35.80;27.20;;;;;;5052581;28;20759;-58
2022/05/06 13:33:28;;;;;;;11.43;3.72;;;37.10;27.30;;;;;;5051549;28;20401;-57
2022/05/06 13:35:55;;;;;;;6.13;3.05;;;36.90;26.60;;;;;;5052100;28;20225;-56